Mayo, Canada
Current Conditions -  °F | °C
As of 7:00 AM on Friday 19 Dec 2014 (Local Time) from CYMA Reporting Station
Scattered Clouds Scattered Clouds  
Wind Chill: -16°   Ceiling: Unl
Heat Index: -16°   Visibility: 20mi
Dew Point: -18°   Wind: 2mph
Humidity: 85%   Direction: 70°ENE
Pressure: 29.49"   Gusts: NA
Location:  63.6°N, 135.88°W
Report Text: CYMA 191500Z 07002KT 20SM SCT030 M16/M18 A2949 RMK SC3 SLP032
Loading
Personal Weather Stations






























Interactive Weather Map New forecast layout! Learn more

10-Day Weather Forecast

Advertisements
Track Severe Weather on mobile